createdAt,value
2023-04-15T08:08:52.423Z,10.99
2023-04-15T08:09:52.411Z,10.96
2023-04-15T08:10:52.843Z,10.93
2023-04-15T08:11:52.417Z,11.11
2023-04-15T08:12:52.423Z,11.05
2023-04-15T08:13:52.449Z,11.00
2023-04-15T08:14:52.426Z,11.04
2023-04-15T08:15:52.494Z,11.10
2023-04-15T08:16:52.444Z,11.08
2023-04-15T08:17:52.479Z,11.05
2023-04-15T08:18:52.446Z,11.04
2023-04-15T08:19:52.460Z,11.02
2023-04-15T08:20:52.459Z,11.02
2023-04-15T08:21:52.461Z,11.05
2023-04-15T08:22:52.473Z,11.08
2023-04-15T08:23:52.479Z,11.14
2023-04-15T08:24:52.521Z,11.04
2023-04-15T08:25:52.481Z,11.02
2023-04-15T08:26:52.496Z,11.00
2023-04-15T08:27:52.501Z,11.05
2023-04-15T08:28:52.509Z,11.10
2023-04-15T08:29:52.509Z,11.04
2023-04-15T08:30:52.516Z,11.05
2023-04-15T08:31:52.625Z,11.00
2023-04-15T08:32:52.588Z,11.04
2023-04-15T08:33:52.537Z,11.04
2023-04-15T08:34:52.538Z,11.07
2023-04-15T08:35:52.536Z,11.05
2023-04-15T08:36:52.551Z,11.14
2023-04-15T08:37:52.548Z,11.25
2023-04-15T08:38:52.559Z,11.26
2023-04-15T08:39:52.572Z,11.23
2023-04-15T08:40:52.584Z,11.33
2023-04-15T08:41:52.568Z,11.36
2023-04-15T08:42:52.580Z,11.36
2023-04-15T08:43:52.583Z,11.35
2023-04-15T08:44:52.591Z,11.43
2023-04-15T08:45:52.590Z,11.48
2023-04-15T08:46:52.620Z,11.47
2023-04-15T08:47:52.723Z,11.52
2023-04-15T08:48:52.626Z,11.51
2023-04-15T08:49:52.618Z,11.59
2023-04-15T08:50:52.634Z,11.63
2023-04-15T08:51:52.630Z,11.60
2023-04-15T08:52:52.638Z,11.55
2023-04-15T08:53:52.654Z,11.70
2023-04-15T08:54:52.643Z,11.72
2023-04-15T08:55:52.674Z,11.73
2023-04-15T08:56:52.749Z,11.70
2023-04-15T08:57:52.660Z,11.70
2023-04-15T08:58:52.662Z,11.70
2023-04-15T08:59:52.680Z,11.68
2023-04-15T09:00:52.748Z,11.70
2023-04-15T09:01:52.725Z,11.73
2023-04-15T09:02:52.858Z,11.73
2023-04-15T09:03:52.760Z,11.75
2023-04-15T09:04:52.708Z,11.70
2023-04-15T09:05:53.279Z,11.70
2023-04-15T09:06:52.719Z,11.77
2023-04-15T09:07:52.763Z,11.83
2023-04-15T09:08:52.720Z,11.80
2023-04-15T09:09:52.739Z,11.83
2023-04-15T09:10:52.746Z,11.78
2023-04-15T09:11:52.754Z,11.84
2023-04-15T09:12:52.767Z,11.78
2023-04-15T09:13:52.754Z,11.69
2023-04-15T09:14:52.763Z,11.78
2023-04-15T09:15:52.762Z,11.84
2023-04-15T09:16:52.798Z,11.70
2023-04-15T09:17:52.806Z,11.75
2023-04-15T09:18:52.785Z,11.77
2023-04-15T09:19:52.798Z,11.73
2023-04-15T09:20:52.787Z,11.75
2023-04-15T09:21:52.803Z,11.81
2023-04-15T09:22:52.804Z,11.81
2023-04-15T09:23:52.812Z,11.73
2023-04-15T09:24:52.818Z,11.83
2023-04-15T09:25:52.817Z,11.86
2023-04-15T09:26:52.822Z,11.80
2023-04-15T09:27:52.824Z,11.78
2023-04-15T09:28:52.915Z,11.81
2023-04-15T09:29:52.841Z,11.81
2023-04-15T09:30:52.868Z,11.81
2023-04-15T09:31:52.854Z,11.81
2023-04-15T09:32:53.001Z,11.77
2023-04-15T09:33:52.868Z,11.78
2023-04-15T09:34:52.874Z,11.97
2023-04-15T09:35:52.877Z,11.81
2023-04-15T09:36:52.890Z,11.83
2023-04-15T09:37:52.880Z,11.90
2023-04-15T09:38:52.972Z,11.91
2023-04-15T09:39:52.896Z,11.94
2023-04-15T09:40:52.907Z,12.00
2023-04-15T09:41:52.910Z,11.87
2023-04-15T09:42:52.917Z,11.94
2023-04-15T09:43:52.917Z,12.00
2023-04-15T09:44:52.946Z,12.02
2023-04-15T09:45:52.949Z,12.04
2023-04-15T09:46:52.935Z,11.87
2023-04-15T09:47:52.941Z,11.87
2023-04-15T09:48:52.968Z,11.91
2023-04-15T09:49:52.964Z,11.95
2023-04-15T09:50:52.958Z,12.00
2023-04-15T09:52:04.402Z,11.87
2023-04-15T09:52:52.976Z,11.94
2023-04-15T09:53:52.995Z,11.99
2023-04-15T09:54:52.985Z,12.02
2023-04-15T09:55:52.986Z,11.91
2023-04-15T09:56:53.000Z,11.90
2023-04-15T09:57:53.003Z,11.95
2023-04-15T09:58:53.005Z,12.06
2023-04-15T09:59:53.008Z,12.02
2023-04-15T10:00:53.067Z,12.02
2023-04-15T10:01:53.088Z,12.02
2023-04-15T10:02:53.192Z,11.97
2023-04-15T10:03:53.082Z,11.86
2023-04-15T10:04:53.046Z,11.87
2023-04-15T10:05:53.057Z,12.00
2023-04-15T10:06:53.061Z,11.88
2023-04-15T10:07:53.065Z,11.97
2023-04-15T10:08:53.070Z,11.99
2023-04-15T10:09:53.095Z,11.99
2023-04-15T10:10:53.092Z,12.13
2023-04-15T10:11:53.092Z,12.09
2023-04-15T10:12:53.093Z,12.15
2023-04-15T10:13:53.095Z,12.18
2023-04-15T10:14:53.127Z,12.12
2023-04-15T10:15:53.154Z,12.12
2023-04-15T10:16:53.180Z,12.12
2023-04-15T10:17:53.165Z,12.13
2023-04-15T10:18:53.126Z,12.13
2023-04-15T10:19:53.134Z,12.12
2023-04-15T10:20:53.136Z,12.13
2023-04-15T10:21:53.150Z,12.18
2023-04-15T10:22:53.166Z,12.17
2023-04-15T10:23:53.167Z,12.15
2023-04-15T10:24:53.161Z,12.20
2023-04-15T10:25:53.167Z,12.27
2023-04-15T10:26:53.173Z,12.21
2023-04-15T10:27:53.173Z,12.21
2023-04-15T10:28:53.186Z,12.21
2023-04-15T10:29:53.188Z,12.24
2023-04-15T10:30:53.241Z,12.25
2023-04-15T10:31:53.237Z,12.24
2023-04-15T10:32:53.283Z,12.24
2023-04-15T10:33:53.218Z,12.28
2023-04-15T10:34:54.647Z,12.21
2023-04-15T10:35:53.226Z,12.21
2023-04-15T10:36:53.233Z,12.25
2023-04-15T10:37:53.246Z,12.24
2023-04-15T10:38:53.246Z,12.25
2023-04-15T10:39:53.254Z,12.20
2023-04-15T10:40:53.253Z,12.22
2023-04-15T10:41:53.260Z,12.32
2023-04-15T10:42:53.268Z,12.31
2023-04-15T10:43:53.298Z,12.28
2023-04-15T10:44:53.282Z,12.36
2023-04-15T10:45:53.312Z,12.32
2023-04-15T10:46:53.463Z,12.31
2023-04-15T10:47:53.348Z,12.31
2023-04-15T10:48:53.331Z,12.37
2023-04-15T10:49:53.316Z,12.42
2023-04-15T10:50:53.323Z,12.35
2023-04-15T10:51:53.317Z,12.32
2023-04-15T10:52:53.338Z,12.37
2023-04-15T10:53:53.338Z,12.32
2023-04-15T10:54:53.346Z,12.37
2023-04-15T10:55:53.340Z,12.36
2023-04-15T10:56:53.358Z,12.32
2023-04-15T10:57:53.361Z,12.32
2023-04-15T10:58:53.362Z,12.27
2023-04-15T10:59:53.366Z,12.32
2023-04-15T11:00:53.377Z,12.24
2023-04-15T11:01:53.551Z,12.36
2023-04-15T11:02:53.525Z,12.31
2023-04-15T11:03:53.450Z,12.37
2023-04-15T11:04:53.503Z,12.40
2023-04-15T11:05:53.416Z,12.37
2023-04-15T11:06:53.418Z,12.40
2023-04-15T11:07:53.414Z,12.45
2023-04-15T11:08:53.424Z,12.43
2023-04-15T11:09:53.425Z,12.35
2023-04-15T11:10:53.431Z,12.42
2023-04-15T11:11:53.448Z,12.43
2023-04-15T11:12:53.453Z,12.46
2023-04-15T11:13:53.455Z,12.43
2023-04-15T11:14:53.455Z,12.49
2023-04-15T11:15:53.482Z,12.43
2023-04-15T11:16:53.475Z,12.45
2023-04-15T11:17:53.559Z,12.49
2023-04-15T11:18:53.478Z,12.42
2023-04-15T11:19:53.500Z,12.50
2023-04-15T11:20:53.514Z,12.53
2023-04-15T11:21:53.504Z,12.53
2023-04-15T11:22:53.503Z,12.49
2023-04-15T11:23:53.510Z,12.46
2023-04-15T11:24:53.517Z,12.40
2023-04-15T11:25:53.520Z,12.46
2023-04-15T11:26:53.534Z,12.39
2023-04-15T11:27:53.533Z,12.45
2023-04-15T11:28:53.540Z,12.40
2023-04-15T11:29:53.546Z,12.35
2023-04-15T11:30:53.551Z,12.37
2023-04-15T11:31:53.609Z,12.32
2023-04-15T11:32:53.624Z,12.40
2023-04-15T11:33:53.577Z,12.39
2023-04-15T11:34:53.575Z,12.46
2023-04-15T11:35:53.584Z,12.45
2023-04-15T11:36:53.604Z,12.43
2023-04-15T11:37:53.598Z,12.46
2023-04-15T11:38:53.609Z,12.39
2023-04-15T11:39:53.612Z,12.39
2023-04-15T11:40:56.686Z,12.45
2023-04-15T11:41:53.630Z,12.43
2023-04-15T11:42:53.629Z,12.42
2023-04-15T11:43:53.647Z,12.49
2023-04-15T11:44:53.647Z,12.45
2023-04-15T11:45:53.884Z,12.47
2023-04-15T11:46:53.660Z,12.50
2023-04-15T11:47:53.719Z,12.49
2023-04-15T11:48:53.667Z,12.50
2023-04-15T11:49:53.675Z,12.49
2023-04-15T11:50:53.681Z,12.45
2023-04-15T11:51:53.688Z,12.53
2023-04-15T11:52:53.715Z,12.47
2023-04-15T11:53:53.706Z,12.47
2023-04-15T11:54:53.716Z,12.45
2023-04-15T11:55:53.707Z,12.50
2023-04-15T11:56:53.731Z,12.46
2023-04-15T11:57:53.724Z,12.47
2023-04-15T11:58:53.766Z,12.47
2023-04-15T11:59:53.733Z,12.46
2023-04-15T12:00:53.738Z,12.45
2023-04-15T12:01:53.801Z,12.47
2023-04-15T12:02:53.869Z,12.47
2023-04-15T12:03:53.951Z,12.40
2023-04-15T12:04:53.886Z,12.53
2023-04-15T12:05:53.775Z,12.54
2023-04-15T12:06:53.774Z,12.45
2023-04-15T12:07:53.780Z,12.47
2023-04-15T12:08:53.811Z,12.49
2023-04-15T12:09:53.789Z,12.46
2023-04-15T12:10:53.805Z,12.54
2023-04-15T12:11:53.880Z,12.47
2023-04-15T12:12:53.820Z,12.49
2023-04-15T12:13:53.821Z,12.47
2023-04-15T12:14:53.830Z,12.47
2023-04-15T12:15:53.871Z,12.42
2023-04-15T12:16:53.848Z,12.37
2023-04-15T12:17:53.878Z,12.43
2023-04-15T12:18:53.847Z,12.42
2023-04-15T12:19:53.849Z,12.42
2023-04-15T12:20:53.865Z,12.46
2023-04-15T12:21:53.868Z,12.47
2023-04-15T12:22:53.896Z,12.50
2023-04-15T12:23:53.887Z,12.53
2023-04-15T12:24:53.926Z,12.47
2023-04-15T12:25:53.903Z,12.50
2023-04-15T12:26:53.898Z,12.50
2023-04-15T12:27:53.922Z,12.47
2023-04-15T12:28:53.908Z,12.50
2023-04-15T12:29:53.921Z,12.45
2023-04-15T12:30:54.021Z,12.50
2023-04-15T12:31:53.949Z,12.53
2023-04-15T12:32:53.963Z,12.50
2023-04-15T12:33:53.958Z,12.45
2023-04-15T12:34:53.951Z,12.53
2023-04-15T12:35:53.952Z,12.50
2023-04-15T12:36:53.970Z,12.46
2023-04-15T12:37:53.977Z,12.40
2023-04-15T12:38:53.970Z,12.43
2023-04-15T12:39:54.012Z,12.36
2023-04-15T12:40:54.026Z,12.35
2023-04-15T12:41:53.995Z,12.31
2023-04-15T12:42:54.004Z,12.36
2023-04-15T12:43:54.003Z,12.27
2023-04-15T12:44:54.012Z,12.32
2023-04-15T12:45:54.016Z,12.35
2023-04-15T12:46:54.068Z,12.28
2023-04-15T12:47:54.059Z,12.32
2023-04-15T12:48:54.048Z,12.31
2023-04-15T12:49:54.048Z,12.31
2023-04-15T12:50:54.058Z,12.28
2023-04-15T12:51:54.069Z,12.28
2023-04-15T12:52:54.061Z,12.32
2023-04-15T12:53:54.070Z,12.31
2023-04-15T12:54:54.081Z,12.32
2023-04-15T12:55:54.087Z,12.37
2023-04-15T12:56:54.106Z,12.37
2023-04-15T12:57:54.095Z,12.36
2023-04-15T12:58:54.092Z,12.39
2023-04-15T12:59:54.105Z,12.40
2023-04-15T13:00:54.116Z,12.42
2023-04-15T13:01:54.602Z,12.43
2023-04-15T13:02:54.184Z,12.39
2023-04-15T13:03:54.227Z,12.49
2023-04-15T13:04:54.210Z,12.42
2023-04-15T13:05:54.142Z,12.43
2023-04-15T13:06:54.153Z,12.42
2023-04-15T13:07:54.163Z,12.39
2023-04-15T13:08:58.204Z,12.45
2023-04-15T13:09:54.175Z,12.47
2023-04-15T13:10:54.164Z,12.43
2023-04-15T13:11:54.190Z,12.43
2023-04-15T13:12:54.209Z,12.45
2023-04-15T13:13:54.190Z,12.43
2023-04-15T13:14:54.200Z,12.47
2023-04-15T13:15:54.277Z,12.47
2023-04-15T13:16:54.220Z,12.46
2023-04-15T13:17:54.318Z,12.37
2023-04-15T13:18:54.222Z,12.46
2023-04-15T13:19:54.223Z,12.42
2023-04-15T13:20:54.228Z,12.40
2023-04-15T13:21:54.237Z,12.32
2023-04-15T13:22:54.249Z,12.39
2023-04-15T13:23:54.253Z,12.39
2023-04-15T13:24:54.253Z,12.36
2023-04-15T13:25:54.276Z,12.39
2023-04-15T13:26:54.266Z,12.36
2023-04-15T13:27:54.266Z,12.32
2023-04-15T13:28:54.293Z,12.39
2023-04-15T13:29:54.286Z,12.36
2023-04-15T13:30:54.290Z,12.40
2023-04-15T13:31:54.413Z,12.36
2023-04-15T13:32:54.368Z,12.31
2023-04-15T13:33:54.307Z,12.43
2023-04-15T13:34:54.321Z,12.35
2023-04-15T13:35:54.316Z,12.36
2023-04-15T13:36:54.329Z,12.43
2023-04-15T13:37:54.336Z,12.43
2023-04-15T13:38:54.344Z,12.43
2023-04-15T13:39:54.344Z,12.43
2023-04-15T13:40:54.358Z,12.39
2023-04-15T13:41:54.359Z,12.42
2023-04-15T13:42:54.363Z,12.36
2023-04-15T13:43:54.377Z,12.37
2023-04-15T13:44:54.394Z,12.43
2023-04-15T13:45:54.404Z,12.40
2023-04-15T13:46:54.388Z,12.37
2023-04-15T13:47:54.514Z,12.36
2023-04-15T13:48:54.390Z,12.27
2023-04-15T13:49:54.399Z,12.31
2023-04-15T13:50:54.409Z,12.32
2023-04-15T13:51:54.423Z,12.29
2023-04-15T13:52:54.424Z,12.29
2023-04-15T13:53:54.423Z,12.35
2023-04-15T13:55:07.063Z,12.37
2023-04-15T13:55:54.439Z,12.28
2023-04-15T13:56:54.441Z,12.28
2023-04-15T13:57:54.450Z,12.36
2023-04-15T13:59:36.996Z,12.28
2023-04-15T14:00:37.150Z,12.37
2023-04-15T14:01:37.030Z,12.31
2023-04-15T14:02:37.170Z,12.37
2023-04-15T14:03:37.311Z,12.28
2023-04-15T14:04:37.037Z,12.35
2023-04-15T14:05:37.037Z,12.28
2023-04-15T14:06:37.035Z,12.32
2023-04-15T14:07:37.049Z,12.32
2023-04-15T14:08:37.063Z,12.37
2023-04-15T14:09:43.010Z,12.31
2023-04-15T14:10:37.060Z,12.35
2023-04-15T14:11:37.087Z,12.36
2023-04-15T14:12:37.083Z,12.35
2023-04-15T14:13:37.075Z,12.43
2023-04-15T14:14:37.081Z,12.43
2023-04-15T14:15:37.125Z,12.42
2023-04-15T14:16:37.130Z,12.42
2023-04-15T14:17:37.147Z,12.46
2023-04-15T14:18:37.115Z,12.46
2023-04-15T14:19:37.114Z,12.50
2023-04-15T14:20:37.118Z,12.54
2023-04-15T14:21:37.122Z,12.42
2023-04-15T14:22:37.137Z,12.47
2023-04-15T14:23:37.133Z,12.47
2023-04-15T14:24:37.147Z,12.55
2023-04-15T14:25:37.146Z,12.55
2023-04-15T14:27:19.709Z,12.54
2023-04-15T14:28:19.701Z,12.57
2023-04-15T14:29:19.705Z,12.60
2023-04-15T14:30:19.705Z,12.53
2023-04-15T14:31:19.942Z,12.60
2023-04-15T14:32:19.839Z,12.70
2023-04-15T14:33:19.739Z,12.67
2023-04-15T14:34:19.737Z,12.65
2023-04-15T14:35:19.753Z,12.65
2023-04-15T14:36:19.761Z,12.60
2023-04-15T14:37:19.766Z,12.64
2023-04-15T14:38:19.760Z,12.72
2023-04-15T14:39:19.763Z,12.68
2023-04-15T14:40:19.775Z,12.76
2023-04-15T14:41:19.781Z,12.70
2023-04-15T14:42:19.787Z,12.73
2023-04-15T14:43:19.787Z,12.72
2023-04-15T14:44:19.802Z,12.79
2023-04-15T14:45:19.812Z,12.76
2023-04-15T14:46:19.886Z,12.68
2023-04-15T14:47:19.889Z,12.83
2023-04-15T14:48:19.846Z,12.80
2023-04-15T14:49:19.853Z,12.79
2023-04-15T14:50:19.841Z,12.86
2023-04-15T14:51:19.843Z,12.85
2023-04-15T14:52:19.848Z,12.80
2023-04-15T14:53:19.864Z,12.86
2023-04-15T14:54:21.208Z,12.83
2023-04-15T14:55:19.886Z,12.85
2023-04-15T14:56:19.882Z,12.83
2023-04-15T14:57:19.889Z,12.87
2023-04-15T14:58:19.886Z,12.93
2023-04-15T14:59:19.901Z,12.90
2023-04-15T15:00:19.907Z,12.90
2023-04-15T15:01:19.922Z,12.83
2023-04-15T15:02:37.312Z,12.86
2023-04-15T15:03:19.979Z,12.93
2023-04-15T15:04:20.030Z,12.79
2023-04-15T15:05:20.071Z,12.85
2023-04-15T15:06:19.949Z,12.83
2023-04-15T15:07:19.954Z,12.90
2023-04-15T15:08:19.953Z,12.80
2023-04-15T15:09:19.973Z,12.79
2023-04-15T15:10:30.261Z,12.80
2023-04-15T15:11:19.971Z,12.80
2023-04-15T15:12:19.991Z,12.83
2023-04-15T15:13:19.996Z,12.80
2023-04-15T15:14:20.001Z,12.75
2023-04-15T15:16:20.097Z,12.83
2023-04-15T15:18:07.652Z,12.72
2023-04-15T15:19:07.585Z,12.79
2023-04-15T15:20:07.600Z,12.83
2023-04-15T15:21:07.593Z,12.82
2023-04-15T15:22:50.134Z,12.78
2023-04-15T15:23:50.147Z,12.90
2023-04-15T15:24:50.149Z,12.91
2023-04-15T15:25:50.158Z,12.70
2023-04-15T15:26:50.169Z,12.73
2023-04-15T15:27:50.166Z,12.79
2023-04-15T15:28:50.188Z,12.73
2023-04-15T15:29:50.178Z,12.75
2023-04-15T15:30:50.185Z,12.68
2023-04-15T15:31:50.237Z,12.76
2023-04-15T15:32:50.314Z,12.65
2023-04-15T15:33:50.215Z,12.67
2023-04-15T15:34:50.212Z,12.78
2023-04-15T15:35:50.248Z,12.75
2023-04-15T15:36:50.226Z,12.62
2023-04-15T15:37:50.235Z,12.58
2023-04-15T15:38:50.240Z,12.60
2023-04-15T15:39:50.244Z,12.61
2023-04-15T15:40:50.251Z,12.64
2023-04-15T15:41:50.261Z,12.60
2023-04-15T15:42:50.262Z,12.72
2023-04-15T15:43:50.276Z,12.61
2023-04-15T15:44:50.291Z,12.70
2023-04-15T15:45:50.287Z,12.61
2023-04-15T15:46:50.313Z,12.55
2023-04-15T15:47:50.362Z,12.75
2023-04-15T15:48:50.302Z,12.62
2023-04-15T15:49:50.330Z,12.76
2023-04-15T15:50:50.316Z,12.73
2023-04-15T15:51:50.344Z,12.72
2023-04-15T15:52:50.349Z,12.73
2023-04-15T15:53:50.345Z,12.76
2023-04-15T15:54:50.348Z,12.76
2023-04-15T15:55:51.102Z,12.75
2023-04-15T15:56:50.348Z,12.76
2023-04-15T15:59:22.997Z,12.73
2023-04-15T16:00:23.012Z,12.62
2023-04-15T16:01:23.040Z,12.60
2023-04-15T16:02:37.580Z,12.57
2023-04-15T16:03:23.149Z,12.68
2023-04-15T16:04:23.487Z,12.58
2023-04-15T16:05:23.042Z,12.64
2023-04-15T16:06:23.044Z,12.58
2023-04-15T16:07:23.075Z,12.61
2023-04-15T16:08:23.059Z,12.64
2023-04-15T16:09:23.056Z,12.72
2023-04-15T16:10:23.072Z,12.68
2023-04-15T16:11:23.078Z,12.72
2023-04-15T16:12:23.085Z,12.61
2023-04-15T16:13:23.089Z,12.61
2023-04-15T16:14:23.097Z,12.58
2023-04-15T16:15:23.100Z,12.58
2023-04-15T16:16:23.160Z,12.64
2023-04-15T16:17:23.136Z,12.58
2023-04-15T16:18:23.132Z,12.64
2023-04-15T16:19:23.127Z,12.61
2023-04-15T16:20:23.130Z,12.60
2023-04-15T16:21:23.130Z,12.60
2023-04-15T16:22:23.145Z,12.55
2023-04-15T16:23:23.294Z,12.64
2023-04-15T16:24:23.172Z,12.57
2023-04-15T16:25:23.165Z,12.62
2023-04-15T16:26:23.186Z,12.61
2023-04-15T16:27:23.174Z,12.68
2023-04-15T16:28:26.721Z,12.62
2023-04-15T16:29:23.198Z,12.75
2023-04-15T16:30:23.199Z,12.72
2023-04-15T16:31:23.314Z,12.75
2023-04-15T16:32:23.252Z,12.75
2023-04-15T16:33:23.228Z,12.78
2023-04-15T16:34:23.238Z,12.75
2023-04-15T16:35:23.232Z,12.72
2023-04-15T16:36:23.242Z,12.73
2023-04-15T16:37:23.232Z,12.73
2023-04-15T16:38:23.258Z,12.73
2023-04-15T16:39:23.274Z,12.73
2023-04-15T16:40:23.257Z,12.73
2023-04-15T16:41:23.272Z,12.72
2023-04-15T16:42:23.271Z,12.73
2023-04-15T16:43:23.281Z,12.75
2023-04-15T16:44:23.277Z,12.76
2023-04-15T16:45:23.289Z,12.72
2023-04-15T16:46:23.323Z,12.75
2023-04-15T16:47:23.332Z,12.75
2023-04-15T16:48:23.312Z,12.86
2023-04-15T16:50:05.855Z,12.82
2023-04-15T16:51:05.857Z,12.82
2023-04-15T16:52:05.864Z,12.80
2023-04-15T16:53:05.871Z,12.82
2023-04-15T16:54:05.881Z,12.82
2023-04-15T16:55:05.928Z,12.78
2023-04-15T16:56:05.892Z,12.83
2023-04-15T16:57:05.893Z,12.82
2023-04-15T16:58:07.896Z,12.70
2023-04-15T16:59:06.051Z,12.78
2023-04-15T17:00:05.913Z,12.73
2023-04-15T17:01:05.959Z,12.70
2023-04-15T17:02:05.956Z,12.73
2023-04-15T17:03:06.264Z,12.73
2023-04-15T17:04:06.048Z,12.75
2023-04-15T17:05:05.945Z,12.72
2023-04-15T17:06:05.960Z,12.76
2023-04-15T17:07:05.957Z,12.72
2023-04-15T17:08:05.967Z,12.75
2023-04-15T17:09:06.167Z,12.75
2023-04-15T17:10:05.974Z,12.65
2023-04-15T17:11:06.011Z,12.65
2023-04-15T17:12:05.987Z,12.60
2023-04-15T17:13:05.999Z,12.57
2023-04-15T17:14:06.023Z,12.60
2023-04-15T17:15:06.022Z,12.54
2023-04-15T17:16:06.112Z,12.58
2023-04-15T17:18:08.601Z,12.61
2023-04-15T17:19:08.609Z,12.61
2023-04-15T17:20:08.620Z,12.62
2023-04-15T17:21:08.625Z,12.70
2023-04-15T17:22:08.623Z,12.62
2023-04-15T17:23:08.632Z,12.60
2023-04-15T17:24:08.644Z,12.61
2023-04-15T17:25:08.640Z,12.49
2023-04-15T17:26:08.655Z,12.55
2023-04-15T17:27:08.682Z,12.54
2023-04-15T17:28:08.701Z,12.55
2023-04-15T17:29:08.675Z,12.55
2023-04-15T17:30:08.787Z,12.53
2023-04-15T17:31:08.724Z,12.53
2023-04-15T17:32:08.694Z,12.49
2023-04-15T17:33:50.461Z,12.50
2023-04-15T17:34:09.802Z,12.50
2023-04-15T17:35:08.708Z,12.46
2023-04-15T17:36:08.723Z,12.54
2023-04-15T17:37:08.722Z,12.43
2023-04-15T17:38:08.727Z,12.55
2023-04-15T17:39:08.746Z,12.50
2023-04-15T17:40:09.122Z,12.49
2023-04-15T17:41:08.752Z,12.50
2023-04-15T17:42:08.757Z,12.57
2023-04-15T17:44:22.953Z,12.53
2023-04-15T17:45:21.364Z,12.53
2023-04-15T17:46:21.393Z,12.50
2023-04-15T17:47:21.399Z,12.47
2023-04-15T17:48:21.378Z,12.47
2023-04-15T17:49:21.385Z,12.50
2023-04-15T17:50:21.389Z,12.47
2023-04-15T17:51:21.396Z,12.42
2023-04-15T17:52:21.410Z,12.49
2023-04-15T17:53:21.412Z,12.39
2023-04-15T17:54:21.414Z,12.43
2023-04-15T17:55:21.422Z,12.39
2023-04-15T17:56:21.426Z,12.37
2023-04-15T17:57:21.446Z,12.39
2023-04-15T17:58:21.448Z,12.39
2023-04-15T17:59:21.447Z,12.37
2023-04-15T18:00:21.481Z,12.36
2023-04-15T18:01:21.547Z,12.32
2023-04-15T18:02:21.650Z,12.35
2023-04-15T18:03:21.610Z,12.37
2023-04-15T18:04:22.810Z,12.35
2023-04-15T18:05:21.551Z,12.32
2023-04-15T18:06:21.481Z,12.31
2023-04-15T18:07:21.514Z,12.28
2023-04-15T18:08:21.503Z,12.31
2023-04-15T18:09:21.507Z,12.29
2023-04-15T18:10:21.514Z,12.25
2023-04-15T18:11:21.518Z,12.24
2023-04-15T18:12:21.520Z,12.24
2023-04-15T18:13:21.523Z,12.35
2023-04-15T18:14:33.676Z,12.32
2023-04-15T18:15:21.564Z,12.20
2023-04-15T18:16:21.668Z,12.21
2023-04-15T18:17:21.576Z,12.22
2023-04-15T18:18:21.560Z,12.20
2023-04-15T18:19:21.566Z,12.27
2023-04-15T18:20:21.567Z,12.18
2023-04-15T18:21:21.583Z,12.20
2023-04-15T18:22:21.576Z,12.24
2023-04-15T18:23:21.595Z,12.21
2023-04-15T18:24:21.601Z,12.20
2023-04-15T18:25:21.607Z,12.21
2023-04-15T18:26:21.612Z,12.21
2023-04-15T18:27:21.615Z,12.12
2023-04-15T18:28:21.622Z,12.20
2023-04-15T18:30:21.634Z,12.15
2023-04-15T18:32:04.278Z,12.17
2023-04-15T18:33:04.221Z,12.20
2023-04-15T18:34:04.456Z,12.10
2023-04-15T18:35:04.200Z,12.27
2023-04-15T18:36:04.213Z,12.21
2023-04-15T18:37:04.214Z,12.17
2023-04-15T18:38:04.214Z,12.22
2023-04-15T18:39:04.636Z,12.12
2023-04-15T18:40:04.235Z,12.22
2023-04-15T18:41:04.227Z,12.25
2023-04-15T18:42:04.238Z,12.17
2023-04-15T18:43:04.243Z,12.21
2023-04-15T18:44:04.255Z,12.21
2023-04-15T18:45:04.287Z,12.22
2023-04-15T18:46:04.306Z,12.20
2023-04-15T18:47:04.270Z,12.13
2023-04-15T18:48:04.367Z,12.21
2023-04-15T18:49:04.645Z,12.17
2023-04-15T18:50:04.286Z,12.18
2023-04-15T18:51:04.296Z,12.21
2023-04-15T18:52:04.321Z,12.12
2023-04-15T18:53:04.310Z,12.24
2023-04-15T18:54:04.305Z,12.25
2023-04-15T18:55:04.319Z,12.24
2023-04-15T18:56:04.318Z,12.10
2023-04-15T18:57:04.332Z,12.17
2023-04-15T18:58:06.402Z,12.22
2023-04-15T18:59:11.583Z,12.13
2023-04-15T19:00:04.349Z,12.13
2023-04-15T19:01:04.397Z,12.21
2023-04-15T19:02:04.421Z,12.12
2023-04-15T19:03:04.442Z,12.17
2023-04-15T19:04:04.438Z,12.22
2023-04-15T19:05:04.418Z,12.10
2023-04-15T19:06:04.379Z,12.18
2023-04-15T19:07:04.393Z,12.15
2023-04-15T19:08:04.399Z,12.20
2023-04-15T19:10:27.016Z,12.15
2023-04-15T19:11:27.027Z,12.12
2023-04-15T19:12:27.026Z,12.20
2023-04-15T19:13:27.038Z,12.15
2023-04-15T19:14:27.038Z,12.06
2023-04-15T19:15:27.043Z,12.12
2023-04-15T19:16:27.148Z,12.17
2023-04-15T19:17:27.082Z,12.15
2023-04-15T19:18:27.063Z,12.10
2023-04-15T19:19:27.093Z,12.07
2023-04-15T19:20:27.079Z,12.15
2023-04-15T19:21:27.084Z,12.13
2023-04-15T19:22:27.092Z,12.10
2023-04-15T19:23:27.095Z,12.17
2023-04-15T19:24:27.118Z,12.10
2023-04-15T19:25:27.118Z,12.20
2023-04-15T19:26:27.107Z,12.18
2023-04-15T19:27:27.111Z,12.18
2023-04-15T19:28:27.131Z,12.17
2023-04-15T19:29:27.144Z,12.10
2023-04-15T19:30:27.155Z,12.10
2023-04-15T19:31:27.165Z,12.12
2023-04-15T19:32:27.188Z,12.15
2023-04-15T19:33:27.156Z,12.15
2023-04-15T19:34:27.159Z,12.10
2023-04-15T19:35:27.191Z,12.13
2023-04-15T19:36:27.172Z,12.13
2023-04-15T19:38:14.731Z,12.18
2023-04-15T19:39:14.745Z,12.12
2023-04-15T19:40:14.780Z,12.15
2023-04-15T19:41:14.742Z,12.10
2023-04-15T19:42:14.756Z,12.03
2023-04-15T19:43:14.772Z,12.07
2023-04-15T19:44:14.765Z,12.00
2023-04-15T19:45:14.778Z,11.99
2023-04-15T19:46:14.840Z,12.00
2023-04-15T19:47:14.787Z,11.99
2023-04-15T19:48:14.785Z,12.09
2023-04-15T19:49:14.788Z,11.97
2023-04-15T19:50:14.801Z,11.97
2023-04-15T19:51:14.819Z,12.04
2023-04-15T19:52:14.813Z,12.00
2023-04-15T19:53:14.813Z,12.00
2023-04-15T19:54:14.819Z,12.02
2023-04-15T19:55:14.835Z,12.04
2023-04-15T19:56:14.835Z,12.02
2023-04-15T19:57:14.842Z,11.95
2023-04-15T19:58:14.855Z,12.06
2023-04-15T19:59:14.881Z,11.91
2023-04-15T20:00:14.860Z,11.91
2023-04-15T20:01:14.888Z,12.03
2023-04-15T20:02:14.995Z,11.91
2023-04-15T20:03:14.992Z,11.95
2023-04-15T20:04:14.994Z,11.91
2023-04-15T20:05:14.890Z,11.91
2023-04-15T20:06:14.892Z,11.91
2023-04-15T20:07:14.921Z,11.95
2023-04-15T20:08:14.908Z,11.90
2023-04-15T20:09:14.915Z,11.91
2023-04-15T20:10:14.921Z,11.94
2023-04-15T20:11:15.117Z,12.03
2023-04-15T20:12:50.712Z,11.90
2023-04-15T20:13:14.929Z,11.91
2023-04-15T20:14:14.933Z,11.97
2023-04-15T20:15:14.944Z,11.97
2023-04-15T20:16:14.995Z,11.90
2023-04-15T20:17:14.981Z,11.91
2023-04-15T20:21:00.844Z,11.94
2023-04-15T20:22:00.854Z,11.88
2023-04-15T20:23:00.880Z,11.91
2023-04-15T20:24:00.871Z,11.95
2023-04-15T20:25:00.876Z,11.91
2023-04-15T20:26:00.877Z,11.86
2023-04-15T20:27:00.893Z,11.84
2023-04-15T20:28:01.162Z,11.83
2023-04-15T20:29:00.892Z,11.94
2023-04-15T20:30:00.889Z,11.91
2023-04-15T20:31:00.926Z,11.88
2023-04-15T20:32:00.901Z,11.90
2023-04-15T20:33:00.970Z,11.94
2023-04-15T20:34:00.920Z,11.94
2023-04-15T20:35:00.922Z,11.90
2023-04-15T20:36:00.924Z,11.84
2023-04-15T20:37:00.940Z,11.95
2023-04-15T20:40:51.855Z,11.88
2023-04-15T20:41:51.850Z,11.88
2023-04-15T20:42:51.852Z,11.88
2023-04-15T20:43:51.856Z,11.99
2023-04-15T20:44:51.856Z,11.94
2023-04-15T20:45:51.870Z,11.94
2023-04-15T20:46:51.886Z,11.99
2023-04-15T20:47:51.920Z,12.00
2023-04-15T20:48:51.891Z,12.07
2023-04-15T20:49:51.925Z,12.02
2023-04-15T20:50:51.898Z,12.02
2023-04-15T20:51:51.895Z,11.99
2023-04-15T20:52:51.903Z,11.99
2023-04-15T20:53:51.919Z,11.97
2023-04-15T20:54:51.913Z,12.00
2023-04-15T20:55:51.922Z,12.10
2023-04-15T20:59:17.798Z,12.07
2023-04-15T21:00:17.809Z,12.04
2023-04-15T21:01:17.846Z,11.95
2023-04-15T21:02:17.950Z,12.04
2023-04-15T21:03:18.048Z,12.04
2023-04-15T21:04:17.804Z,11.99
2023-04-15T21:05:17.811Z,12.02
2023-04-15T21:06:17.821Z,11.97
2023-04-15T21:07:17.832Z,12.07
2023-04-15T21:08:17.826Z,12.00
2023-04-15T21:09:17.830Z,11.91
2023-04-15T21:10:17.843Z,11.94
2023-04-15T21:11:36.576Z,11.94
2023-04-15T21:12:17.854Z,11.97
2023-04-15T21:13:17.861Z,11.97
2023-04-15T21:14:17.864Z,11.95
2023-04-15T21:17:43.745Z,11.99
2023-04-15T21:18:43.727Z,12.10
2023-04-15T21:19:43.741Z,11.97
2023-04-15T21:20:43.731Z,12.06
2023-04-15T21:21:43.746Z,11.95
2023-04-15T21:22:43.741Z,11.90
2023-04-15T21:23:43.750Z,11.94